Somers, WI (53171)

2:22 AM CST on January 31, 2015 (GMT -0600)
APRSWXNET Somers WI US | Change Station
CLOSE
Current Station
Personal Weather Station
Location: Somers, WI
Elevation: 731 ft
Nearby Weather Stations
Active Advisory: Winter Storm Watch

Elev 731 ft 42.64 °N, 87.92 °W | Updated 49 minutes ago

Partly Cloudy
Partly Cloudy
19 °F
Feels Like 19 °F
N
0
Wind Variable Wind from WSW
Gusts 2.0 mph

Today
High -- | Low -- °F
--% Chance of Precip.
Yesterday
High -- | Low -- °F
Precip. -- in
7:07 AM 5:03 PM
Waxing Gibbous, 88% visible
Pressure 30.32 in
Visibility 10.0 miles
Clouds Overcast 10000 ft
Windchill 19 °F
Dew Point 15 °F
Humidity 84%
Rainfall 0.00 in
Snow Depth Not available.
UV 0 out of 12
Pollen .10 out of 12
Air Quality Not available.
Flu Activity Not available.
METAR KENW 310753Z AUTO 20004KT 10SM OVC100 M06/M09 A3029 RMK AO2 SLP268 T10611094

More Conditions Fewer Conditions

Pressure 30.32 in
Visibility 10.0 miles
Clouds Overcast 10000 ft
Windchill 19 °F
Dew Point 15 °F
Humidity 84%
Rainfall 0.00 in
Snow Depth Not available.
UV 0 out of 12
Pollen .10 out of 12
Air Quality Not available.
Flu Activity Not available.
METAR KENW 310753Z AUTO 20004KT 10SM OVC100 M06/M09 A3029 RMK AO2 SLP268 T10611094

More Conditions Fewer Conditions

10-Day Weather Forecast

Almanac

Astronomy

Jan. 31, 2015 Rise Set
Actual Time
Civil Twilight
Nautical Twilight
Astronomical Twilight
Moon
Length of Visible Light
Length of Day
Tomorrow will be .
, % of the Moon is Illuminated

Today's Extremes

State Highs State Lows

Community

WunderPhotos

Upload Photos

1,792,021 photos uploaded!

WunderBlogs® & News

Nearby

Air Quality

  Air Quality AQ Index Pollutant
Not available.

Snow Depth

Station Depth Elevation

Earthquake Activity

City Distance Mag. Time & Date
Minimum magnitude displayed is 2.5.

Coastal Water Temperatures

Place Temperature

Nearby Weather Stations